Irving, TX

1:25 PM CDT on August 28, 2016 (GMT -0500)
Dallas-Fort Worth International | | Change Station

Elev 597 ft 32.90 °N, 97.02 °W | Updated 32 minutes ago

Mostly Cloudy
Mostly Cloudy
89 °F
Feels Like 93 °F
N
9
Wind Variable Wind from SE

Today
High -- | Low -- °F
--% Chance of Precip.
Yesterday
High -- | Low -- °F
Precip. -- in
Pressure 30.03 in
Visibility 10.0 miles
Clouds Scattered Clouds 4300 ft
Mostly Cloudy 6500 ft
Mostly Cloudy 12000 ft
Mostly Cloudy 30000 ft
Heat Index 93 °F
Dew Point 68 °F
Humidity 50%
Rainfall 0.00 in
Snow Depth Not available.
7:00 AM 7:57 PM
Waning Crescent, 14% visible
METAR KDFW 281753Z 13008KT 10SM SCT043 BKN065 BKN120 BKN300 32/20 A3006 RMK AO2 SLP169 T03170200 10317 20233 58007
Pressure 30.03 in
Visibility 10.0 miles
Clouds Scattered Clouds 4300 ft
Mostly Cloudy 6500 ft
Mostly Cloudy 12000 ft
Mostly Cloudy 30000 ft
Heat Index 93 °F
Dew Point 68 °F
Humidity 50%
Rainfall 0.00 in
Snow Depth Not available.
7:00 AM 7:57 PM
Waning Crescent, 14% visible
METAR KDFW 281753Z 13008KT 10SM SCT043 BKN065 BKN120 BKN300 32/20 A3006 RMK AO2 SLP169 T03170200 10317 20233 58007

10-Day Weather Forecast

Almanac

Astronomy

Aug. 28, 2016 Rise Set
Actual Time
Civil Twilight
Nautical Twilight
Astronomical Twilight
Moon
Length of Visible Light
Length of Day
Tomorrow will be .
, % of the Moon is Illuminated

Today's Extremes

State Highs State Lows

Community

WunderPhotos

Upload Photos

1,935,644 photos uploaded!

WunderBlog® & News

Nearby

Air Quality

  Air Quality AQ Index Pollutant
Not available.

Snow Depth

Station Depth Elevation

Earthquake Activity

City Distance Mag. Time & Date
Minimum magnitude displayed is 2.5.

Coastal Water Temperatures

Place Temperature

Stations

Nearby Weather Stations

Station Location Temp. Windchill Dew Point Humidity Wind Precip. Elev Updated Type
                   

Watches & Warnings

There are currently no watches in effect.